createdAt,value
2019-03-08T00:01:01.292Z,95680.33
2019-03-08T00:03:27.987Z,95680.86
2019-03-08T00:05:54.693Z,95676.55
2019-03-08T00:08:21.295Z,95677.08
2019-03-08T00:10:47.994Z,95673.36
2019-03-08T00:13:14.707Z,95676.84
2019-03-08T00:15:41.700Z,95683.00
2019-03-08T00:18:08.297Z,95684.34
2019-03-08T00:20:34.892Z,95685.91
2019-03-08T00:23:01.598Z,95687.77
2019-03-08T00:25:28.297Z,95681.84
2019-03-08T00:27:54.891Z,95685.56
2019-03-08T00:30:21.577Z,95693.58
2019-03-08T00:32:48.303Z,95692.77
2019-03-08T00:35:15.000Z,95691.95
2019-03-08T00:37:41.616Z,95692.51
2019-03-08T00:40:13.081Z,95691.72
2019-03-08T00:42:39.791Z,95688.00
2019-03-08T00:45:06.704Z,95692.77
2019-03-08T00:47:33.817Z,95692.51
2019-03-08T00:50:00.412Z,95692.16
2019-03-08T00:52:27.107Z,95683.27
2019-03-08T00:54:53.705Z,95688.55
2019-03-08T00:57:20.384Z,95682.84
2019-03-08T00:59:47.076Z,95692.66
2019-03-08T01:02:13.728Z,95696.00
2019-03-08T01:04:40.691Z,95691.80
2019-03-08T01:07:07.416Z,95689.53
2019-03-08T01:09:34.116Z,95686.76
2019-03-08T01:12:00.809Z,95696.21
2019-03-08T01:14:27.518Z,95692.59
2019-03-08T01:16:54.269Z,95696.21
2019-03-08T01:19:20.960Z,95688.88
2019-03-08T01:21:47.644Z,95682.72
2019-03-08T01:24:14.332Z,95685.85
2019-03-08T01:26:41.034Z,95683.92
2019-03-08T01:29:07.636Z,95680.97
2019-03-08T01:31:34.316Z,95679.86
2019-03-08T01:34:00.932Z,95684.09
2019-03-08T01:36:27.650Z,95681.16
2019-03-08T01:38:54.346Z,95673.66
2019-03-08T01:41:20.971Z,95678.19
2019-03-08T01:43:47.652Z,95673.38
2019-03-08T01:46:14.335Z,95670.64
2019-03-08T01:48:41.012Z,95676.98
2019-03-08T01:51:07.722Z,95675.06
2019-03-08T01:53:34.335Z,95669.95
2019-03-08T01:56:01.045Z,95665.13
2019-03-08T01:58:27.723Z,95668.39
2019-03-08T02:00:54.436Z,95666.53
2019-03-08T02:03:21.122Z,95663.86
2019-03-08T02:05:47.894Z,95663.86
2019-03-08T02:08:14.478Z,95661.72
2019-03-08T02:10:41.173Z,95662.75
2019-03-08T02:13:07.843Z,95656.08
2019-03-08T02:15:34.539Z,95658.23
2019-03-08T02:18:01.223Z,95652.08
2019-03-08T02:20:27.823Z,95650.73
2019-03-08T02:22:54.527Z,95643.02
2019-03-08T02:25:21.272Z,95647.61
2019-03-08T02:27:47.961Z,95643.70
2019-03-08T02:30:15.032Z,95646.08
2019-03-08T02:32:41.910Z,95641.78
2019-03-08T02:35:08.635Z,95647.48
2019-03-08T02:37:35.351Z,95645.44
2019-03-08T02:40:02.039Z,95644.69
2019-03-08T02:42:28.635Z,95644.16
2019-03-08T02:44:55.339Z,95644.91
2019-03-08T02:47:21.961Z,95653.97
2019-03-08T02:49:48.864Z,95651.52
2019-03-08T02:52:15.545Z,95657.35
2019-03-08T02:54:42.159Z,95648.95
2019-03-08T02:57:08.868Z,95659.27
2019-03-08T02:59:35.579Z,95660.25
2019-03-08T03:02:02.272Z,95665.29
2019-03-08T03:04:28.873Z,95661.44
2019-03-08T03:06:55.806Z,95668.90
2019-03-08T03:09:22.536Z,95669.34
2019-03-08T03:11:49.238Z,95674.09
2019-03-08T03:14:15.928Z,95680.84
2019-03-08T03:16:42.543Z,95682.62
2019-03-08T03:19:09.224Z,95685.00
2019-03-08T03:21:35.928Z,95688.48
2019-03-08T03:24:02.904Z,95697.31
2019-03-08T03:26:29.592Z,95691.97
2019-03-08T03:28:56.302Z,95699.16
2019-03-08T03:31:22.992Z,95699.61
2019-03-08T03:33:49.700Z,95707.48
2019-03-08T03:36:16.392Z,95703.19
2019-03-08T03:38:43.100Z,95712.75
2019-03-08T03:41:10.099Z,95710.63
2019-03-08T03:43:36.797Z,95717.00
2019-03-08T03:46:03.498Z,95708.41
2019-03-08T03:48:30.118Z,95714.27
2019-03-08T03:50:56.837Z,95713.67
2019-03-08T03:53:23.538Z,95714.64
2019-03-08T03:55:50.255Z,95729.54
2019-03-08T03:58:16.924Z,95741.25
2019-03-08T04:00:43.544Z,95738.80
2019-03-08T04:03:10.146Z,95734.80
2019-03-08T04:05:36.929Z,95741.17
2019-03-08T04:08:03.616Z,95742.52
2019-03-08T04:10:30.199Z,95750.52
2019-03-08T04:12:56.842Z,95746.40
2019-03-08T04:15:23.535Z,95744.17
2019-03-08T04:17:50.128Z,95747.66
2019-03-08T04:20:16.762Z,95743.14
2019-03-08T04:22:43.467Z,95747.66
2019-03-08T04:25:14.010Z,95743.14
2019-03-08T04:27:41.780Z,95746.84
2019-03-08T04:30:12.443Z,95749.73
2019-03-08T04:32:39.233Z,95757.36
2019-03-08T04:35:05.951Z,95754.39
2019-03-08T04:37:32.638Z,95749.72
2019-03-08T04:39:59.355Z,95754.98
2019-03-08T04:42:26.046Z,95759.67
2019-03-08T04:44:52.741Z,95755.30
2019-03-08T04:47:19.455Z,95756.04
2019-03-08T04:49:46.339Z,95759.45
2019-03-08T04:52:12.973Z,95753.52
2019-03-08T04:54:39.657Z,95752.92
2019-03-08T04:57:06.255Z,95756.33
2019-03-08T04:59:32.951Z,95751.46
2019-03-08T05:01:59.651Z,95755.98
2019-03-08T05:04:26.365Z,95755.38
2019-03-08T05:06:53.285Z,95752.42
2019-03-08T05:09:19.971Z,95756.94
2019-03-08T05:11:46.674Z,95756.94
2019-03-08T05:14:13.367Z,95758.48
2019-03-08T05:16:39.989Z,95753.08
2019-03-08T05:19:06.606Z,95754.41
2019-03-08T05:21:33.296Z,95758.41
2019-03-08T05:23:59.994Z,95757.73
2019-03-08T05:26:37.094Z,95756.62
2019-03-08T05:29:03.831Z,95763.72
2019-03-08T05:31:30.532Z,95760.92
2019-03-08T05:33:57.295Z,95759.73
2019-03-08T05:36:24.005Z,95770.09
2019-03-08T05:38:50.722Z,95761.93
2019-03-08T05:41:17.422Z,95766.91
2019-03-08T05:43:44.130Z,95774.00
2019-03-08T05:46:10.765Z,95767.78
2019-03-08T05:48:37.458Z,95777.02
2019-03-08T05:51:04.158Z,95787.08
2019-03-08T05:53:30.886Z,95791.20
2019-03-08T05:55:57.594Z,95788.76
2019-03-08T05:58:32.358Z,95793.05
2019-03-08T06:00:59.106Z,95798.47
2019-03-08T06:03:25.766Z,95800.92
2019-03-08T06:05:52.492Z,95800.41
2019-03-08T06:08:19.193Z,95802.55
2019-03-08T06:10:45.899Z,95809.30
2019-03-08T06:13:12.595Z,95815.09
2019-03-08T06:15:39.294Z,95813.98
2019-03-08T06:18:06.018Z,95813.80
2019-03-08T06:20:32.706Z,95809.96
2019-03-08T06:22:59.419Z,95818.42
2019-03-08T06:25:26.134Z,95814.54
2019-03-08T06:27:52.746Z,95819.53
2019-03-08T06:30:19.451Z,95830.24
2019-03-08T06:32:46.164Z,95828.17
2019-03-08T06:35:12.892Z,95835.19
2019-03-08T06:37:39.593Z,95842.07
2019-03-08T06:40:17.927Z,95844.00
2019-03-08T06:42:44.599Z,95846.70
2019-03-08T06:45:11.921Z,95850.85
2019-03-08T06:47:38.605Z,95846.94
2019-03-08T06:50:05.929Z,95849.92
2019-03-08T06:52:32.656Z,95854.44
2019-03-08T06:54:59.371Z,95864.05
2019-03-08T06:57:26.059Z,95862.19
2019-03-08T07:00:12.133Z,95865.41
2019-03-08T07:02:39.035Z,95870.98
2019-03-08T07:05:05.773Z,95861.73
2019-03-08T07:07:32.514Z,95876.95
2019-03-08T07:09:59.213Z,95873.22
2019-03-08T07:12:25.926Z,95875.55
2019-03-08T07:14:52.632Z,95882.83
2019-03-08T07:17:20.560Z,95884.52
2019-03-08T07:20:12.243Z,95883.23
2019-03-08T07:23:04.220Z,95889.08
2019-03-08T07:26:05.538Z,95894.03
2019-03-08T07:28:57.610Z,95899.27
2019-03-08T07:31:33.366Z,95898.34
2019-03-08T07:34:18.187Z,95913.89
2019-03-08T07:37:04.403Z,95904.62
2019-03-08T07:39:56.983Z,95918.40
2019-03-08T07:42:49.444Z,95923.58
2019-03-08T07:45:41.912Z,95923.75
2019-03-08T07:48:13.722Z,95934.53
2019-03-08T07:50:49.915Z,95938.84
2019-03-08T07:53:24.914Z,95944.45
2019-03-08T07:55:57.628Z,95950.39
2019-03-08T07:58:42.682Z,95955.11
2019-03-08T08:01:17.092Z,95959.91
2019-03-08T08:03:52.931Z,95957.30
2019-03-08T08:06:34.224Z,95966.45
2019-03-08T08:09:20.437Z,95957.98
2019-03-08T08:12:09.669Z,95969.28
2019-03-08T08:14:53.238Z,95972.66
2019-03-08T08:17:35.489Z,95982.09
2019-03-08T08:20:21.992Z,95982.72
2019-03-08T08:23:03.456Z,95985.27
2019-03-08T08:25:53.820Z,95987.87
2019-03-08T08:28:38.900Z,95990.47
2019-03-08T08:31:28.153Z,95992.86
2019-03-08T08:34:14.397Z,95997.32
2019-03-08T08:36:59.572Z,95994.11
2019-03-08T08:39:57.935Z,95986.38
2019-03-08T08:42:53.469Z,96000.37
2019-03-08T08:45:55.054Z,95992.51
2019-03-08T08:48:33.706Z,95994.96
2019-03-08T08:51:38.145Z,95996.44
2019-03-08T08:54:12.952Z,95996.23
2019-03-08T08:57:08.445Z,96002.46
2019-03-08T08:59:42.293Z,96008.37
2019-03-08T09:02:27.501Z,96021.53
2019-03-08T09:05:02.381Z,96011.27
2019-03-08T09:07:54.410Z,96015.75
2019-03-08T09:10:34.003Z,96023.80
2019-03-08T09:13:20.229Z,96019.36
2019-03-08T09:16:05.325Z,96018.67
2019-03-08T09:18:57.800Z,96022.18
2019-03-08T09:21:28.203Z,96014.97
2019-03-08T09:24:01.387Z,96017.25
2019-03-08T09:26:46.280Z,96024.94
2019-03-08T09:29:41.160Z,96037.45
2019-03-08T09:32:29.665Z,96031.16
2019-03-08T09:35:21.959Z,96028.34
2019-03-08T09:38:14.229Z,96034.04
2019-03-08T09:40:59.577Z,96041.16
2019-03-08T09:43:34.690Z,96044.31
2019-03-08T09:46:23.457Z,96047.25
2019-03-08T09:49:21.338Z,96052.91
2019-03-08T09:52:17.021Z,96052.56
2019-03-08T09:54:51.979Z,96061.72
2019-03-08T09:57:43.094Z,96060.92
2019-03-08T10:00:30.742Z,96066.30
2019-03-08T10:03:15.617Z,96066.95
2019-03-08T10:06:00.657Z,96067.11
2019-03-08T10:08:52.401Z,96074.22
2019-03-08T10:11:23.304Z,96081.96
2019-03-08T10:14:09.423Z,96097.28
2019-03-08T10:16:41.575Z,96092.36
2019-03-08T10:19:21.734Z,96100.34
2019-03-08T10:22:06.778Z,96100.63
2019-03-08T10:24:56.027Z,96098.46
2019-03-08T10:27:37.566Z,96100.17
2019-03-08T10:30:09.346Z,96096.45
2019-03-08T10:33:04.394Z,96093.42
2019-03-08T10:35:43.272Z,96099.31
2019-03-08T10:38:24.634Z,96106.25
2019-03-08T10:41:05.400Z,96109.96
2019-03-08T10:43:51.638Z,96113.47
2019-03-08T10:46:28.579Z,96119.14
2019-03-08T10:49:04.119Z,96112.25
2019-03-08T10:51:36.784Z,96116.30
2019-03-08T10:54:41.469Z,96124.64
2019-03-08T10:57:33.414Z,96135.94
2019-03-08T11:00:16.418Z,96124.59
2019-03-08T11:03:03.197Z,96136.34
2019-03-08T11:06:01.767Z,96144.17
2019-03-08T11:08:46.621Z,96143.18
2019-03-08T11:11:22.820Z,96146.97
2019-03-08T11:14:09.032Z,96156.15
2019-03-08T11:16:58.312Z,96161.55
2019-03-08T11:19:39.976Z,96157.52
2019-03-08T11:22:15.215Z,96154.77
2019-03-08T11:25:08.683Z,96173.61
2019-03-08T11:28:20.952Z,96159.68
2019-03-08T11:31:01.463Z,96160.58
2019-03-08T11:33:53.535Z,96161.29
2019-03-08T11:36:39.883Z,96161.29
2019-03-08T11:39:22.191Z,96170.04
2019-03-08T11:42:00.592Z,96182.30
2019-03-08T11:44:35.791Z,96175.25
2019-03-08T11:47:18.181Z,96174.03
2019-03-08T11:50:10.225Z,96163.92
2019-03-08T11:52:44.501Z,96164.51
2019-03-08T11:55:35.831Z,96168.59
2019-03-08T11:58:08.817Z,96180.92
2019-03-08T12:00:41.305Z,96177.42
2019-03-08T12:03:27.724Z,96172.20
2019-03-08T12:06:16.722Z,96175.86
2019-03-08T12:09:05.733Z,96172.22
2019-03-08T12:11:57.726Z,96174.55
2019-03-08T12:14:39.028Z,96172.63
2019-03-08T12:17:25.235Z,96178.09
2019-03-08T12:20:11.469Z,96158.68
2019-03-08T12:23:09.863Z,96168.49
2019-03-08T12:26:11.529Z,96165.08
2019-03-08T12:29:00.651Z,96164.12
2019-03-08T12:31:46.855Z,96154.14
2019-03-08T12:34:30.555Z,96164.12
2019-03-08T12:37:16.793Z,96169.59
2019-03-08T12:39:57.377Z,96170.90
2019-03-08T12:43:08.072Z,96163.44
2019-03-08T12:45:45.020Z,96163.53
2019-03-08T12:48:43.419Z,96163.04
2019-03-08T12:51:41.661Z,96157.66
2019-03-08T12:54:22.366Z,96155.55
2019-03-08T12:57:07.284Z,96150.47
2019-03-08T12:59:54.048Z,96146.97
2019-03-08T13:02:25.698Z,96158.91
2019-03-08T13:05:26.874Z,96145.02
2019-03-08T13:08:18.846Z,96148.84
2019-03-08T13:10:45.607Z,96151.98
2019-03-08T13:13:13.109Z,96159.83
2019-03-08T13:15:39.804Z,96163.31
2019-03-08T13:18:06.502Z,96165.42
2019-03-08T13:20:33.216Z,96160.94
2019-03-08T13:23:00.117Z,96164.61
2019-03-08T13:25:28.459Z,96163.23
2019-03-08T13:27:55.250Z,96166.08
2019-03-08T13:30:21.962Z,96168.09
2019-03-08T13:32:48.686Z,96182.63
2019-03-08T13:35:15.388Z,96190.16
2019-03-08T13:37:42.121Z,96199.70
2019-03-08T13:40:12.064Z,96192.28
2019-03-08T13:42:38.742Z,96196.86
2019-03-08T13:45:06.751Z,96198.69
2019-03-08T13:47:33.443Z,96190.87
2019-03-08T13:50:00.063Z,96203.00
2019-03-08T13:52:26.768Z,96182.80
2019-03-08T13:54:53.419Z,96209.19
2019-03-08T13:57:20.227Z,96211.30
2019-03-08T13:59:46.941Z,96205.64
2019-03-08T14:02:13.645Z,96210.83
2019-03-08T14:04:40.351Z,96210.67
2019-03-08T14:07:07.139Z,96206.95
2019-03-08T14:09:33.836Z,96195.11
2019-03-08T14:12:00.544Z,96190.87
2019-03-08T14:14:27.448Z,96194.61
2019-03-08T14:16:54.175Z,96213.00
2019-03-08T14:19:20.875Z,96216.73
2019-03-08T14:21:47.762Z,96224.71
2019-03-08T14:24:14.386Z,96222.39
2019-03-08T14:26:41.082Z,96226.53
2019-03-08T14:29:07.804Z,96233.48
2019-03-08T14:31:53.941Z,96239.50
2019-03-08T14:34:20.635Z,96239.16
2019-03-08T14:36:47.341Z,96241.73
2019-03-08T14:39:14.045Z,96242.13
2019-03-08T14:41:45.235Z,96247.27
2019-03-08T14:44:37.042Z,96250.08
2019-03-08T14:47:14.638Z,96250.58
2019-03-08T14:49:41.327Z,96240.27
2019-03-08T14:52:08.039Z,96232.95
2019-03-08T14:54:34.848Z,96236.57
2019-03-08T14:57:01.470Z,96238.20
2019-03-08T14:59:28.222Z,96237.75
2019-03-08T15:01:54.854Z,96246.64
2019-03-08T15:04:21.600Z,96238.27
2019-03-08T15:06:48.352Z,96240.58
2019-03-08T15:09:15.098Z,96243.52
2019-03-08T15:11:41.725Z,96248.22
2019-03-08T15:14:08.425Z,96256.84
2019-03-08T15:16:35.346Z,96257.63
2019-03-08T15:19:04.873Z,96263.18
2019-03-08T15:21:33.129Z,96274.19
2019-03-08T15:24:00.194Z,96286.83
2019-03-08T15:26:26.925Z,96273.19
2019-03-08T15:28:53.666Z,96264.31
2019-03-08T15:31:20.380Z,96274.96
2019-03-08T15:33:47.106Z,96263.47
2019-03-08T15:36:13.821Z,96280.98
2019-03-08T15:38:40.880Z,96296.58
2019-03-08T15:41:07.578Z,96288.52
2019-03-08T15:43:34.299Z,96283.46
2019-03-08T15:46:00.947Z,96289.42
2019-03-08T15:48:27.660Z,96277.55
2019-03-08T15:50:54.266Z,96284.39
2019-03-08T15:53:20.972Z,96254.63
2019-03-08T15:55:52.878Z,96288.83
2019-03-08T15:58:16.219Z,96288.97
2019-03-08T16:00:42.819Z,96296.86
2019-03-08T16:03:09.526Z,96294.55
2019-03-08T16:05:36.157Z,96299.18
2019-03-08T16:08:03.949Z,96290.34
2019-03-08T16:10:30.795Z,96286.45
2019-03-08T16:12:57.525Z,96283.45
2019-03-08T16:15:24.236Z,96279.59
2019-03-08T16:17:50.944Z,96285.43
2019-03-08T16:20:17.901Z,96286.23
2019-03-08T16:22:44.602Z,96287.73
2019-03-08T16:25:11.847Z,96293.59
2019-03-08T16:27:38.543Z,96298.38
2019-03-08T16:30:09.723Z,96299.13
2019-03-08T16:32:42.273Z,96293.88
2019-03-08T16:35:08.987Z,96301.38
2019-03-08T16:37:54.283Z,96307.88
2019-03-08T16:40:43.285Z,96310.61
2019-03-08T16:43:28.641Z,96319.96
2019-03-08T16:46:04.805Z,96330.98
2019-03-08T16:48:46.204Z,96333.03
2019-03-08T16:51:41.711Z,96335.92
2019-03-08T16:54:26.545Z,96342.05
2019-03-08T16:57:03.751Z,96346.14
2019-03-08T16:59:37.342Z,96350.33
2019-03-08T17:02:12.496Z,96344.45
2019-03-08T17:04:45.905Z,96352.73
2019-03-08T17:07:25.124Z,96344.47
2019-03-08T17:10:03.515Z,96348.83
2019-03-08T17:13:04.838Z,96358.52
2019-03-08T17:15:49.872Z,96354.05
2019-03-08T17:18:41.974Z,96361.89
2019-03-08T17:21:33.730Z,96370.14
2019-03-08T17:24:20.168Z,96376.05
2019-03-08T17:26:51.251Z,96373.41
2019-03-08T17:29:55.667Z,96377.02
2019-03-08T17:32:47.912Z,96380.11
2019-03-08T17:35:36.906Z,96384.56
2019-03-08T17:38:25.936Z,96393.00
2019-03-08T17:41:22.594Z,96394.32
2019-03-08T17:44:07.598Z,96401.41
2019-03-08T17:47:08.678Z,96400.42
2019-03-08T17:50:10.164Z,96404.64
2019-03-08T17:53:08.339Z,96400.33
2019-03-08T17:55:57.277Z,96404.03
2019-03-08T17:58:47.973Z,96400.33
2019-03-08T18:01:28.537Z,96414.41
2019-03-08T18:04:21.021Z,96422.41
2019-03-08T18:07:05.944Z,96419.23
2019-03-08T18:09:57.086Z,96419.13
2019-03-08T18:12:46.384Z,96426.02
2019-03-08T18:15:27.138Z,96427.66
2019-03-08T18:18:10.824Z,96427.28
2019-03-08T18:21:02.958Z,96427.18
2019-03-08T18:23:58.133Z,96429.44
2019-03-08T18:26:35.588Z,96427.49
2019-03-08T18:29:37.227Z,96438.58
2019-03-08T18:32:17.806Z,96437.55
2019-03-08T18:35:02.959Z,96437.45
2019-03-08T18:37:51.673Z,96437.97
2019-03-08T18:40:35.627Z,96434.37
2019-03-08T18:43:21.802Z,96440.43
2019-03-08T18:46:08.056Z,96440.87
2019-03-08T18:48:54.293Z,96451.23
2019-03-08T18:51:40.475Z,96453.49
2019-03-08T18:54:26.659Z,96454.41
2019-03-08T18:57:13.034Z,96445.38
2019-03-08T18:59:59.243Z,96458.73
2019-03-08T19:02:45.448Z,96458.94
2019-03-08T19:05:31.671Z,96461.20
2019-03-08T19:08:17.855Z,96469.81
2019-03-08T19:11:04.042Z,96469.08
2019-03-08T19:13:50.230Z,96465.99
2019-03-08T19:16:36.467Z,96461.81
2019-03-08T19:19:22.669Z,96473.89
2019-03-08T19:21:55.577Z,96475.12
2019-03-08T19:25:01.281Z,96484.34
2019-03-08T19:27:47.489Z,96489.87
2019-03-08T19:30:34.181Z,96484.03
2019-03-08T19:33:20.575Z,96487.00
2019-03-08T19:36:06.805Z,96491.42
2019-03-08T19:38:53.008Z,96499.62
2019-03-08T19:41:39.204Z,96488.95
2019-03-08T19:44:25.391Z,96497.78
2019-03-08T19:47:11.584Z,96501.98
2019-03-08T19:49:49.241Z,96494.48
2019-03-08T19:52:43.581Z,96501.86
2019-03-08T19:55:49.278Z,96505.23
2019-03-08T19:58:35.480Z,96500.34
2019-03-08T20:01:21.680Z,96511.20
2019-03-08T20:04:07.878Z,96515.08
2019-03-08T20:06:54.079Z,96519.67
2019-03-08T20:09:40.734Z,96525.80
2019-03-08T20:12:26.911Z,96520.31
2019-03-08T20:15:13.316Z,96530.84
2019-03-08T20:17:46.129Z,96540.01
2019-03-08T20:20:32.447Z,96544.19
2019-03-08T20:23:18.705Z,96548.13
2019-03-08T20:26:04.906Z,96542.06
2019-03-08T20:28:51.372Z,96550.94
2019-03-08T20:31:37.574Z,96555.86
2019-03-08T20:34:19.876Z,96549.08
2019-03-08T20:37:06.082Z,96547.44
2019-03-08T20:39:52.315Z,96538.00
2019-03-08T20:42:38.502Z,96539.52
2019-03-08T20:45:24.859Z,96534.90
2019-03-08T20:47:51.627Z,96530.47
2019-03-08T20:50:18.343Z,96536.18
2019-03-08T20:52:45.092Z,96537.17
2019-03-08T20:55:31.273Z,96544.41
2019-03-08T20:57:58.198Z,96535.56
2019-03-08T21:00:24.939Z,96539.38
2019-03-08T21:02:51.661Z,96534.13
2019-03-08T21:05:18.397Z,96531.14
2019-03-08T21:07:45.105Z,96525.65
2019-03-08T21:10:31.269Z,96526.27
2019-03-08T21:12:58.017Z,96534.20
2019-03-08T21:15:25.686Z,96532.81
2019-03-08T21:17:59.530Z,96532.60
2019-03-08T21:20:26.247Z,96540.14
2019-03-08T21:22:53.004Z,96542.69
2019-03-08T21:25:19.713Z,96546.36
2019-03-08T21:27:46.420Z,96548.58
2019-03-08T21:30:14.090Z,96548.84
2019-03-08T21:32:40.833Z,96548.94
2019-03-08T21:35:07.582Z,96547.03
2019-03-08T21:37:34.308Z,96548.43
2019-03-08T21:40:01.058Z,96545.64
2019-03-08T21:42:27.800Z,96538.08
2019-03-08T21:44:54.594Z,96531.61
2019-03-08T21:47:21.230Z,96536.62
2019-03-08T21:49:47.928Z,96537.95
2019-03-08T21:52:14.709Z,96529.66
2019-03-08T21:54:52.875Z,96537.63
2019-03-08T21:57:19.511Z,96532.50
2019-03-08T21:59:46.146Z,96541.81
2019-03-08T22:07:51.611Z,96537.00
2019-03-08T22:13:05.733Z,96540.42
2019-03-08T22:15:32.426Z,96536.52
2019-03-08T22:17:59.052Z,96526.70
2019-03-08T22:20:25.787Z,96522.72
2019-03-08T22:22:52.524Z,96524.55
2019-03-08T22:25:27.535Z,96519.55
2019-03-08T22:27:54.255Z,96516.20
2019-03-08T22:30:20.999Z,96517.84
2019-03-08T22:32:47.740Z,96512.52
2019-03-08T22:35:14.440Z,96512.02
2019-03-08T22:37:41.161Z,96513.34
2019-03-08T22:40:16.015Z,96503.91
2019-03-08T22:42:42.734Z,96499.60
2019-03-08T22:45:09.512Z,96492.23
2019-03-08T22:47:36.213Z,96497.73
2019-03-08T22:50:02.974Z,96492.80
2019-03-08T22:52:29.655Z,96490.84
2019-03-08T22:54:56.307Z,96495.34
2019-03-08T22:57:23.037Z,96498.19
2019-03-08T22:59:49.764Z,96495.20
2019-03-08T23:02:16.490Z,96484.77
2019-03-08T23:04:43.217Z,96490.77
2019-03-08T23:07:09.924Z,96490.69
2019-03-08T23:09:44.701Z,96485.05
2019-03-08T23:12:11.424Z,96489.55
2019-03-08T23:14:38.154Z,96497.02
2019-03-08T23:17:04.884Z,96498.34
2019-03-08T23:19:31.482Z,96501.00
2019-03-08T23:21:58.199Z,96503.98
2019-03-08T23:24:24.930Z,96503.98
2019-03-08T23:27:11.161Z,96508.16
2019-03-08T23:30:05.983Z,96505.30
2019-03-08T23:32:35.992Z,96499.77
2019-03-08T23:35:02.728Z,96506.92
2019-03-08T23:37:29.453Z,96500.59
2019-03-08T23:39:56.060Z,96490.77
2019-03-08T23:42:22.849Z,96487.92
2019-03-08T23:44:49.556Z,96487.42
2019-03-08T23:47:16.149Z,96493.75
2019-03-08T23:49:42.755Z,96491.79
2019-03-08T23:52:09.489Z,96489.86
2019-03-08T23:54:36.198Z,96486.44
2019-03-08T23:57:02.814Z,96496.44
2019-03-08T23:59:29.648Z,96504.80
